createdAt,value
2022-09-13T00:00:26.344Z,99913.97
2022-09-13T00:10:27.674Z,99907.25
2022-09-13T00:20:28.998Z,99888.16
2022-09-13T00:30:30.303Z,99875.59
2022-09-13T00:40:31.760Z,99881.94
2022-09-13T00:50:33.061Z,99867.44
2022-09-13T01:00:34.378Z,99876.66
2022-09-13T01:10:39.284Z,99885.09
2022-09-13T01:20:40.514Z,99895.34
2022-09-13T01:30:42.404Z,99904.22
2022-09-13T01:40:44.174Z,99902.25
2022-09-13T01:50:45.576Z,99899.75
2022-09-13T02:00:47.430Z,99902.56
2022-09-13T02:10:48.865Z,99919.50
2022-09-13T02:20:50.202Z,99908.19
2022-09-13T02:30:51.692Z,99892.34
2022-09-13T02:40:53.751Z,99895.09
2022-09-13T02:50:55.059Z,99913.94
2022-09-13T03:00:56.451Z,99895.78
2022-09-13T03:10:57.940Z,99887.19
2022-09-13T03:20:59.459Z,99884.88
2022-09-13T03:31:00.747Z,99876.66
2022-09-13T03:41:02.350Z,99860.53
2022-09-13T03:51:03.649Z,99862.25
2022-09-13T04:01:05.257Z,99876.81
2022-09-13T04:11:06.602Z,99873.50
2022-09-13T04:21:07.891Z,99868.63
2022-09-13T04:31:09.296Z,99863.78
2022-09-13T04:41:11.624Z,99887.31
2022-09-13T04:51:14.788Z,99897.03
2022-09-13T05:01:16.163Z,99894.28
2022-09-13T05:11:17.517Z,99900.00
2022-09-13T05:21:18.920Z,99915.00
2022-09-13T05:31:20.291Z,99917.44
2022-09-13T05:41:21.628Z,99929.97
2022-09-13T05:51:23.006Z,99936.31
2022-09-13T06:01:24.402Z,99931.66
2022-09-13T06:11:26.325Z,99920.66
2022-09-13T06:21:29.260Z,99912.59
2022-09-13T06:31:30.811Z,99900.94
2022-09-13T06:41:32.042Z,99894.97
2022-09-13T06:51:33.368Z,99895.50
2022-09-13T07:01:34.720Z,99878.91
2022-09-13T07:11:36.151Z,99854.19
2022-09-13T07:21:37.470Z,99872.81
2022-09-13T07:31:38.834Z,99880.09
2022-09-13T07:41:40.180Z,99884.38
2022-09-13T07:51:41.486Z,99866.59
2022-09-13T08:01:42.884Z,99879.41
2022-09-13T08:11:44.242Z,99869.28
2022-09-13T08:21:45.586Z,99880.16
2022-09-13T08:31:47.199Z,99868.53
2022-09-13T08:41:48.915Z,99885.13
2022-09-13T08:51:50.736Z,99892.50
2022-09-13T09:01:52.224Z,99863.78
2022-09-13T09:11:53.840Z,99880.59
2022-09-13T09:21:55.179Z,99904.69
2022-09-13T09:31:57.523Z,99900.56
2022-09-13T09:41:59.261Z,99874.03
2022-09-13T09:52:00.637Z,99895.25
2022-09-13T10:02:04.858Z,99882.00
2022-09-13T10:12:06.374Z,99879.28
2022-09-13T10:22:08.312Z,99867.00
2022-09-13T10:32:09.637Z,99878.31
2022-09-13T10:42:10.941Z,99872.50
2022-09-13T10:52:14.461Z,99883.72
2022-09-13T11:02:15.946Z,99869.56
2022-09-13T11:12:18.634Z,99855.06
2022-09-13T11:22:19.937Z,99850.72
2022-09-13T11:32:21.143Z,99845.50
2022-09-13T11:42:22.428Z,99832.88
2022-09-13T11:52:23.726Z,99787.34
2022-09-13T12:02:25.117Z,99765.34
2022-09-13T12:12:26.473Z,99768.41
2022-09-13T12:22:30.830Z,99766.00
2022-09-13T12:32:32.439Z,99747.47
2022-09-13T12:42:33.784Z,99748.56
2022-09-13T12:52:35.280Z,99730.25
2022-09-13T13:02:36.696Z,99722.56
2022-09-13T13:12:38.052Z,99720.47
2022-09-13T13:22:39.353Z,99706.28
2022-09-13T13:32:40.574Z,99700.66
2022-09-13T13:42:41.856Z,99690.59
2022-09-13T13:52:43.148Z,99679.56
2022-09-13T14:02:44.437Z,99672.59
2022-09-13T14:12:46.261Z,99646.38
2022-09-13T14:22:47.580Z,99640.88
2022-09-13T14:32:48.955Z,99623.72
2022-09-13T14:42:50.300Z,99605.94
2022-09-13T14:52:51.594Z,99583.63
2022-09-13T15:02:52.912Z,99570.88
2022-09-13T15:12:54.254Z,99556.38
2022-09-13T15:22:55.586Z,99538.97
2022-09-13T15:32:56.878Z,99531.28
2022-09-13T15:42:58.097Z,99512.88
2022-09-13T15:52:59.396Z,99522.16
2022-09-13T16:03:00.804Z,99509.31
2022-09-13T16:13:02.115Z,99510.41
2022-09-13T16:23:03.436Z,99510.44
2022-09-13T16:33:04.723Z,99496.75
2022-09-13T16:43:05.927Z,99489.63
2022-09-13T16:53:07.204Z,99504.16
2022-09-13T17:03:08.596Z,99498.63
2022-09-13T17:13:09.902Z,99499.06
2022-09-13T17:23:11.215Z,99485.16
2022-09-13T17:33:12.491Z,99481.97
2022-09-13T17:43:13.723Z,99497.25
2022-09-13T17:53:15.020Z,99487.09
2022-09-13T18:03:16.309Z,99507.94
2022-09-13T18:13:17.638Z,99526.53
2022-09-13T18:23:19.021Z,99526.44
2022-09-13T18:33:22.096Z,99545.28
2022-09-13T18:43:23.368Z,99537.09
2022-09-13T18:53:34.181Z,99547.53
2022-09-13T19:03:36.390Z,99545.47
2022-09-13T19:13:37.853Z,99548.06
2022-09-13T19:23:58.480Z,99562.13
2022-09-13T19:34:02.333Z,99564.47
2022-09-13T19:44:04.284Z,99559.41
2022-09-13T19:54:05.855Z,99567.66
2022-09-13T20:04:07.194Z,99554.91
2022-09-13T20:14:08.625Z,99552.66
2022-09-13T20:24:10.065Z,99547.66
2022-09-13T20:34:11.526Z,99531.63
2022-09-13T20:44:12.907Z,99529.53
2022-09-13T20:54:14.212Z,99537.44
2022-09-13T21:04:17.637Z,99534.00
2022-09-13T21:14:18.942Z,99526.06
2022-09-13T21:24:20.236Z,99522.00
2022-09-13T21:34:21.541Z,99495.66
2022-09-13T21:44:22.811Z,99499.69
2022-09-13T21:54:24.088Z,99488.84
2022-09-13T22:04:27.136Z,99487.34
2022-09-13T22:14:28.558Z,99472.25
2022-09-13T22:24:29.874Z,99448.69
2022-09-13T22:34:31.246Z,99418.94
2022-09-13T22:44:33.037Z,99423.34
2022-09-13T22:54:34.343Z,99428.13
2022-09-13T23:04:35.685Z,99429.78
2022-09-13T23:14:36.996Z,99449.00
2022-09-13T23:24:38.396Z,99446.56
2022-09-13T23:34:39.695Z,99460.09
2022-09-13T23:44:41.072Z,99461.38
2022-09-13T23:54:42.375Z,99465.94
